createdAt,value
2022-12-19T00:01:06.146Z,100
2022-12-19T00:02:03.720Z,100
2022-12-19T00:03:04.303Z,100
2022-12-19T00:04:08.372Z,100
2022-12-19T00:05:07.401Z,100
2022-12-19T00:06:07.512Z,100
2022-12-19T00:07:07.412Z,100
2022-12-19T00:08:17.574Z,100
2022-12-19T00:09:11.091Z,100
2022-12-19T00:10:11.010Z,100
2022-12-19T00:11:12.752Z,100
2022-12-19T00:12:17.411Z,100
2022-12-19T00:13:16.461Z,100
2022-12-19T00:14:17.184Z,100
2022-12-19T00:15:17.495Z,100
2022-12-19T00:16:21.051Z,100
2022-12-19T00:17:18.836Z,100
2022-12-19T00:18:19.263Z,100
2022-12-19T00:19:19.363Z,100
2022-12-19T00:20:19.801Z,100
2022-12-19T00:21:22.854Z,100
2022-12-19T00:22:20.420Z,100
2022-12-19T00:23:20.831Z,100
2022-12-19T00:24:21.889Z,100
2022-12-19T00:25:21.660Z,100
2022-12-19T00:26:32.774Z,100
2022-12-19T00:27:25.071Z,100
2022-12-19T00:28:25.462Z,100
2022-12-19T00:29:25.893Z,100
2022-12-19T00:30:26.091Z,100
2022-12-19T00:31:28.938Z,100
2022-12-19T00:32:26.832Z,100
2022-12-19T00:33:27.241Z,100
2022-12-19T00:34:27.661Z,100
2022-12-19T00:35:27.971Z,100
2022-12-19T00:36:32.382Z,100
2022-12-19T00:37:29.831Z,100
2022-12-19T00:38:30.973Z,100
2022-12-19T00:39:30.663Z,100
2022-12-19T00:40:31.069Z,100
2022-12-19T00:41:33.541Z,100
2022-12-19T00:42:31.804Z,100
2022-12-19T00:43:32.248Z,100
2022-12-19T00:44:32.737Z,100
2022-12-19T00:45:32.998Z,100
2022-12-19T00:46:34.670Z,100
2022-12-19T00:47:33.678Z,100
2022-12-19T00:48:34.722Z,100
2022-12-19T00:49:34.317Z,100
2022-12-19T00:50:34.932Z,100
2022-12-19T00:51:36.747Z,100
2022-12-19T00:52:35.366Z,100
2022-12-19T00:53:35.673Z,100
2022-12-19T00:54:36.056Z,100
2022-12-19T00:55:38.867Z,100
2022-12-19T00:56:38.324Z,100
2022-12-19T00:57:37.145Z,100
2022-12-19T00:58:39.921Z,100
2022-12-19T00:59:40.168Z,100
2022-12-19T01:00:39.944Z,100
2022-12-19T01:01:41.980Z,100
2022-12-19T01:02:40.915Z,100
2022-12-19T01:03:52.924Z,100
2022-12-19T01:04:44.044Z,100
2022-12-19T01:05:44.345Z,100
2022-12-19T01:06:44.772Z,100
2022-12-19T01:07:45.182Z,100
2022-12-19T01:08:45.797Z,100
2022-12-19T01:09:45.713Z,100
2022-12-19T01:10:46.940Z,100
2022-12-19T01:11:46.442Z,100
2022-12-19T01:12:46.863Z,100
2022-12-19T01:13:47.274Z,100
2022-12-19T01:14:47.678Z,100
2022-12-19T01:15:47.902Z,100
2022-12-19T01:16:48.285Z,100
2022-12-19T01:17:49.446Z,100
2022-12-19T01:18:48.862Z,100
2022-12-19T01:19:49.145Z,100
2022-12-19T01:20:49.587Z,100
2022-12-19T01:21:49.790Z,100
2022-12-19T01:22:50.192Z,100
2022-12-19T01:23:50.607Z,100
2022-12-19T01:24:50.931Z,100
2022-12-19T01:25:54.420Z,100
2022-12-19T01:26:51.861Z,100
2022-12-19T01:27:54.945Z,100
2022-12-19T01:28:52.585Z,100
2022-12-19T01:29:53.215Z,100
2022-12-19T01:30:52.913Z,100
2022-12-19T01:31:53.499Z,100
2022-12-19T01:32:53.641Z,100
2022-12-19T01:33:54.544Z,100
2022-12-19T01:34:54.373Z,100
2022-12-19T01:35:54.683Z,100
2022-12-19T01:36:55.092Z,100
2022-12-19T01:37:58.065Z,100
2022-12-19T01:38:57.360Z,100
2022-12-19T01:39:56.043Z,100
2022-12-19T01:40:57.680Z,100
2022-12-19T01:41:58.098Z,100
2022-12-19T01:42:57.171Z,100
2022-12-19T01:44:05.766Z,100
2022-12-19T01:46:02.715Z,100
2022-12-19T01:47:01.264Z,100
2022-12-19T01:52:19.500Z,100
2022-12-19T01:53:16.914Z,100
2022-12-19T01:54:25.525Z,100
2022-12-19T01:55:18.871Z,100
2022-12-19T01:56:22.848Z,100
2022-12-19T01:57:20.503Z,100
2022-12-19T01:58:20.710Z,100
2022-12-19T01:59:27.777Z,100
2022-12-19T02:00:25.094Z,100
2022-12-19T02:01:25.827Z,100
2022-12-19T02:02:31.624Z,100
2022-12-19T02:03:32.311Z,100
2022-12-19T02:04:32.377Z,100
2022-12-19T02:05:31.596Z,100
2022-12-19T02:06:32.852Z,100
2022-12-19T02:07:32.953Z,100
2022-12-19T02:08:31.844Z,100
2022-12-19T02:09:32.049Z,100
2022-12-19T02:10:31.756Z,100
2022-12-19T02:11:32.056Z,100
2022-12-19T02:12:36.771Z,100
2022-12-19T02:13:34.731Z,100
2022-12-19T02:14:35.552Z,100
2022-12-19T02:30:14.286Z,100
2022-12-19T02:43:45.077Z,100
2022-12-19T02:45:49.573Z,100
2022-12-19T02:46:49.407Z,100
2022-12-19T02:47:48.891Z,100
2022-12-19T02:48:49.524Z,100
2022-12-19T02:49:49.428Z,100
2022-12-19T02:50:50.185Z,100
2022-12-19T02:51:50.070Z,100
2022-12-19T02:52:50.047Z,100
2022-12-19T02:53:50.889Z,100
2022-12-19T02:54:53.413Z,100
2022-12-19T03:11:35.997Z,99.82
2022-12-19T03:12:40.676Z,99.8
2022-12-19T03:13:42.733Z,99.73
2022-12-19T03:14:41.313Z,99.79
2022-12-19T03:15:41.718Z,99.77
2022-12-19T03:16:41.975Z,99.71
2022-12-19T03:17:41.831Z,99.69
2022-12-19T03:18:42.866Z,99.72
2022-12-19T03:19:42.286Z,99.69
2022-12-19T03:21:49.956Z,99.84
2022-12-19T03:22:48.128Z,99.84
2022-12-19T03:23:50.524Z,99.84
2022-12-19T03:24:48.546Z,99.87
2022-12-19T03:25:56.198Z,99.87
2022-12-19T03:31:05.160Z,99.53
2022-12-19T03:32:05.589Z,99.46
2022-12-19T03:33:03.855Z,99.43
2022-12-19T03:36:14.010Z,99.35
2022-12-19T03:37:17.020Z,99.32
2022-12-19T03:38:18.319Z,99.28
2022-12-19T03:39:17.716Z,99.37
2022-12-19T03:40:20.084Z,99.5
2022-12-19T03:41:21.474Z,99.47
2022-12-19T03:42:20.668Z,99.4
2022-12-19T03:43:23.186Z,99.37
2022-12-19T03:44:22.764Z,99.35
2022-12-19T03:46:27.826Z,99.29
2022-12-19T03:47:31.565Z,99.3
2022-12-19T03:49:32.834Z,99.18
2022-12-19T03:58:56.663Z,98.58
2022-12-19T03:59:55.106Z,98.66
2022-12-19T04:00:54.316Z,98.67
2022-12-19T04:01:54.499Z,98.67
2022-12-19T04:02:56.302Z,98.62
2022-12-19T04:03:55.593Z,98.57
2022-12-19T04:04:59.369Z,98.54
2022-12-19T04:05:59.465Z,98.44
2022-12-19T04:06:58.831Z,98.27
2022-12-19T04:08:02.864Z,98.33
2022-12-19T04:09:01.331Z,98.33
2022-12-19T04:10:05.637Z,98.33
2022-12-19T04:11:09.816Z,98.29
2022-12-19T04:12:13.756Z,98.38
2022-12-19T04:13:17.127Z,98.32
2022-12-19T04:15:20.328Z,98.21
2022-12-19T04:18:22.664Z,98.12
2022-12-19T04:20:26.290Z,98.15
2022-12-19T04:21:32.964Z,98.15
2022-12-19T04:23:36.348Z,98.12
2022-12-19T04:24:36.366Z,98.03
2022-12-19T04:26:39.246Z,98.04
2022-12-19T04:27:41.699Z,98
2022-12-19T04:28:43.920Z,97.81
2022-12-19T04:29:42.427Z,97.71
2022-12-19T04:30:43.089Z,97.7
2022-12-19T04:31:42.905Z,97.73
2022-12-19T04:32:46.025Z,97.77
2022-12-19T04:33:43.593Z,97.96
2022-12-19T04:34:43.603Z,98.08
2022-12-19T04:35:44.216Z,98.05
2022-12-19T04:36:44.417Z,97.99
2022-12-19T04:37:44.742Z,98.19
2022-12-19T04:38:45.053Z,98.17
2022-12-19T04:39:45.355Z,98.16
2022-12-19T04:40:45.538Z,98.09
2022-12-19T04:41:45.980Z,98.12
2022-12-19T04:42:46.293Z,98.18
2022-12-19T04:43:46.715Z,98.22
2022-12-19T04:44:46.921Z,98.34
2022-12-19T04:45:47.373Z,98.28
2022-12-19T04:46:47.780Z,98.22
2022-12-19T04:47:47.880Z,98.1
2022-12-19T04:48:48.195Z,98.08
2022-12-19T04:49:48.496Z,98.04
2022-12-19T04:50:48.925Z,98
2022-12-19T04:51:49.337Z,98
2022-12-19T04:52:53.235Z,98.03
2022-12-19T04:53:53.027Z,98.14
2022-12-19T04:54:53.456Z,98.33
2022-12-19T04:56:54.696Z,98.32
2022-12-19T04:57:54.999Z,98.21
2022-12-19T04:58:58.803Z,98.12
2022-12-19T04:59:56.147Z,98.12
2022-12-19T05:01:01.465Z,98.25
2022-12-19T05:01:58.906Z,98.22
2022-12-19T05:02:59.795Z,98.29
2022-12-19T05:04:04.220Z,98.28
2022-12-19T05:05:02.126Z,98.17
2022-12-19T05:06:13.797Z,97.94
2022-12-19T05:07:06.436Z,97.78
2022-12-19T05:08:06.548Z,97.66
2022-12-19T05:09:06.841Z,97.6
2022-12-19T05:10:08.296Z,97.49
2022-12-19T05:11:13.386Z,97.47
2022-12-19T05:12:09.932Z,97.43
2022-12-19T05:13:10.255Z,97.49
2022-12-19T05:14:10.579Z,97.57
2022-12-19T05:15:11.285Z,97.59
2022-12-19T05:16:12.565Z,97.6
2022-12-19T05:17:11.716Z,97.59
2022-12-19T05:18:11.836Z,97.6
2022-12-19T05:19:12.263Z,97.59
2022-12-19T05:20:12.556Z,97.6
2022-12-19T05:21:13.095Z,97.57
2022-12-19T05:22:13.180Z,97.61
2022-12-19T05:23:17.411Z,97.67
2022-12-19T05:24:15.638Z,97.7
2022-12-19T05:25:15.979Z,97.99
2022-12-19T05:26:16.173Z,97.96
2022-12-19T05:27:16.349Z,97.92
2022-12-19T05:28:18.331Z,97.83
2022-12-19T05:29:17.632Z,97.81
2022-12-19T05:30:17.386Z,97.78
2022-12-19T05:31:20.453Z,97.81
2022-12-19T05:32:17.988Z,97.85
2022-12-19T05:33:18.280Z,97.74
2022-12-19T05:34:18.780Z,97.74
2022-12-19T05:35:19.094Z,97.72
2022-12-19T05:36:19.613Z,97.8
2022-12-19T05:37:19.724Z,97.87
2022-12-19T05:38:19.938Z,97.93
2022-12-19T05:39:20.304Z,97.94
2022-12-19T05:40:20.679Z,97.87
2022-12-19T05:41:21.697Z,97.86
2022-12-19T05:42:21.290Z,97.88
2022-12-19T05:43:22.138Z,97.79
2022-12-19T05:44:22.124Z,97.71
2022-12-19T05:45:22.744Z,97.74
2022-12-19T05:46:24.772Z,97.7
2022-12-19T05:47:22.964Z,97.61
2022-12-19T05:48:23.396Z,97.59
2022-12-19T05:49:23.694Z,97.51
2022-12-19T05:50:24.011Z,97.48
2022-12-19T05:51:24.176Z,97.55
2022-12-19T05:52:24.643Z,97.57
2022-12-19T05:53:26.173Z,97.58
2022-12-19T05:54:25.264Z,97.58
2022-12-19T05:55:25.699Z,97.65
2022-12-19T05:56:25.800Z,97.71
2022-12-19T05:57:26.201Z,97.67
2022-12-19T05:58:26.523Z,97.7
2022-12-19T05:59:27.032Z,97.69
2022-12-19T06:00:27.454Z,97.69
2022-12-19T06:01:28.209Z,97.65
2022-12-19T06:02:32.316Z,97.62
2022-12-19T06:03:29.900Z,97.67
2022-12-19T06:04:30.547Z,97.78
2022-12-19T06:05:31.072Z,97.95
2022-12-19T06:06:30.875Z,97.96
2022-12-19T06:07:31.194Z,97.89
2022-12-19T06:08:32.110Z,97.84
2022-12-19T06:09:31.715Z,97.76
2022-12-19T06:10:32.333Z,97.7
2022-12-19T06:11:32.444Z,97.69
2022-12-19T06:12:32.862Z,97.72
2022-12-19T06:13:34.195Z,97.72
2022-12-19T06:14:33.586Z,97.73
2022-12-19T06:15:33.886Z,97.77
2022-12-19T06:16:34.162Z,97.8
2022-12-19T06:17:34.625Z,97.83
2022-12-19T06:18:35.045Z,97.84
2022-12-19T06:19:35.258Z,97.78
2022-12-19T06:20:35.474Z,97.86
2022-12-19T06:21:39.723Z,97.91
2022-12-19T06:22:38.245Z,97.95
2022-12-19T06:23:39.060Z,98
2022-12-19T06:24:38.560Z,98.15
2022-12-19T06:25:39.093Z,98.27
2022-12-19T06:26:39.396Z,98.29
2022-12-19T06:27:39.834Z,98.32
2022-12-19T06:28:40.035Z,98.35
2022-12-19T06:29:40.245Z,98.26
2022-12-19T06:30:40.767Z,98.22
2022-12-19T06:31:41.101Z,98.14
2022-12-19T06:32:41.276Z,98.13
2022-12-19T06:33:41.682Z,98.2
2022-12-19T06:35:44.691Z,98.3
2022-12-19T06:36:44.906Z,98.37
2022-12-19T06:37:45.213Z,98.48
2022-12-19T06:38:45.530Z,98.55
2022-12-19T06:39:45.930Z,98.54
2022-12-19T06:40:46.152Z,98.54
2022-12-19T06:41:46.575Z,98.53
2022-12-19T06:42:47.912Z,98.54
2022-12-19T06:43:51.872Z,98.59
2022-12-19T06:44:52.639Z,98.6
2022-12-19T06:45:51.127Z,98.61
2022-12-19T06:46:52.889Z,98.61
2022-12-19T06:47:51.830Z,98.65
2022-12-19T06:48:52.436Z,98.64
2022-12-19T06:49:52.616Z,98.61
2022-12-19T06:50:52.757Z,98.59
2022-12-19T06:51:53.276Z,98.52
2022-12-19T06:52:54.393Z,98.55
2022-12-19T06:53:53.799Z,98.68
2022-12-19T06:54:54.227Z,98.68
2022-12-19T06:55:58.427Z,98.69
2022-12-19T06:56:55.771Z,98.68
2022-12-19T06:57:55.988Z,98.71
2022-12-19T06:58:56.399Z,98.8
2022-12-19T06:59:57.949Z,98.79
2022-12-19T07:00:57.136Z,98.75
2022-12-19T07:02:59.566Z,98.81
2022-12-19T07:03:58.885Z,98.88
2022-12-19T07:06:00.275Z,98.9
2022-12-19T07:07:00.955Z,98.92
2022-12-19T07:08:01.163Z,98.88
2022-12-19T07:09:01.261Z,98.75
2022-12-19T07:10:01.601Z,98.68
2022-12-19T07:11:02.122Z,98.63
2022-12-19T07:12:02.648Z,98.65
2022-12-19T07:13:03.158Z,98.72
2022-12-19T07:14:02.828Z,98.68
2022-12-19T07:15:03.675Z,98.59
2022-12-19T07:16:05.377Z,98.55
2022-12-19T07:17:04.627Z,98.59
2022-12-19T07:18:07.296Z,98.51
2022-12-19T07:19:05.439Z,98.52
2022-12-19T07:20:05.854Z,98.56
2022-12-19T07:21:06.786Z,98.58
2022-12-19T07:22:06.707Z,98.59
2022-12-19T07:23:07.717Z,98.63
2022-12-19T07:24:07.728Z,98.64
2022-12-19T07:25:07.694Z,98.61
2022-12-19T07:26:07.328Z,98.64
2022-12-19T07:27:07.555Z,98.58
2022-12-19T07:28:08.871Z,98.66
2022-12-19T07:29:09.093Z,98.72
2022-12-19T07:30:09.513Z,98.79
2022-12-19T07:31:08.549Z,98.7
2022-12-19T07:32:09.005Z,98.72
2022-12-19T07:33:11.238Z,98.74
2022-12-19T07:34:09.624Z,98.84
2022-12-19T07:35:10.267Z,98.9
2022-12-19T07:36:10.256Z,98.85
2022-12-19T07:37:10.995Z,98.82
2022-12-19T07:38:11.022Z,98.78
2022-12-19T07:39:11.713Z,98.79
2022-12-19T07:40:12.455Z,98.76
2022-12-19T07:41:12.047Z,98.78
2022-12-19T07:42:12.247Z,98.75
2022-12-19T07:43:12.660Z,98.74
2022-12-19T07:44:12.979Z,98.7
2022-12-19T07:45:13.388Z,98.65
2022-12-19T07:46:13.801Z,98.68
2022-12-19T07:47:13.827Z,98.6
2022-12-19T07:48:14.226Z,98.55
2022-12-19T07:49:19.576Z,98.56
2022-12-19T07:50:19.736Z,98.59
2022-12-19T07:51:20.081Z,98.51
2022-12-19T07:52:20.290Z,98.49
2022-12-19T07:53:20.615Z,98.41
2022-12-19T07:54:21.124Z,98.37
2022-12-19T07:55:21.392Z,98.31
2022-12-19T07:56:21.960Z,98.3
2022-12-19T07:57:22.175Z,98.3
2022-12-19T07:58:22.604Z,98.28
2022-12-19T07:59:28.904Z,98.28
2022-12-19T08:00:23.260Z,98.27
2022-12-19T08:01:23.314Z,98.24
2022-12-19T08:02:26.266Z,98.23
2022-12-19T08:03:25.117Z,98.18
2022-12-19T08:04:24.465Z,98.06
2022-12-19T08:05:24.665Z,98.1
2022-12-19T08:06:25.097Z,98.11
2022-12-19T08:07:25.184Z,98.05
2022-12-19T08:08:25.727Z,98.03
2022-12-19T08:09:26.037Z,98.02
2022-12-19T08:10:26.555Z,97.96
2022-12-19T08:11:26.872Z,97.81
2022-12-19T08:12:27.307Z,97.66
2022-12-19T08:13:29.068Z,97.53
2022-12-19T08:14:29.651Z,97.54
2022-12-19T08:15:29.967Z,97.59
2022-12-19T08:16:31.304Z,97.52
2022-12-19T08:17:30.623Z,97.53
2022-12-19T08:18:31.011Z,97.5
2022-12-19T08:19:31.227Z,97.37
2022-12-19T08:20:31.536Z,97.36
2022-12-19T08:21:32.154Z,97.41
2022-12-19T08:22:32.587Z,97.39
2022-12-19T08:23:33.193Z,97.27
2022-12-19T08:24:33.006Z,97.32
2022-12-19T08:25:33.224Z,97.23
2022-12-19T08:26:39.462Z,97.23
2022-12-19T08:27:34.266Z,97.07
2022-12-19T08:28:35.491Z,96.98
2022-12-19T08:29:34.975Z,96.98
2022-12-19T08:30:35.265Z,96.89
2022-12-19T08:31:35.630Z,96.9
2022-12-19T08:32:35.827Z,96.87
2022-12-19T08:33:37.051Z,96.89
2022-12-19T08:34:36.523Z,96.97
2022-12-19T08:35:36.969Z,96.89
2022-12-19T08:36:37.197Z,96.91
2022-12-19T08:37:37.687Z,96.8
2022-12-19T08:38:38.729Z,96.71
2022-12-19T08:39:39.547Z,96.6
2022-12-19T08:40:42.843Z,96.63
2022-12-19T08:41:43.248Z,96.54
2022-12-19T08:42:43.564Z,96.6
2022-12-19T08:43:49.301Z,96.61
2022-12-19T08:44:46.443Z,96.5
2022-12-19T08:45:49.816Z,96.4
2022-12-19T08:46:50.301Z,96.32
2022-12-19T08:47:48.112Z,96.28
2022-12-19T08:48:48.332Z,96.19
2022-12-19T08:49:48.945Z,96.27
2022-12-19T08:50:53.666Z,96.42
2022-12-19T08:51:51.114Z,96.32
2022-12-19T08:52:51.301Z,96.2
2022-12-19T08:53:51.625Z,96.12
2022-12-19T08:54:52.012Z,96.05
2022-12-19T08:56:00.118Z,96.01
2022-12-19T08:56:57.779Z,95.83
2022-12-19T08:57:57.789Z,95.79
2022-12-19T08:58:57.957Z,95.8
2022-12-19T08:59:58.525Z,95.87
2022-12-19T09:01:05.837Z,95.91
2022-12-19T09:02:03.501Z,95.84
2022-12-19T09:03:04.346Z,95.58
2022-12-19T09:05:36.897Z,95.56
2022-12-19T09:05:58.069Z,95.39
2022-12-19T09:06:18.669Z,95.4
2022-12-19T09:07:11.773Z,95.42
2022-12-19T09:08:13.137Z,95.48
2022-12-19T09:09:13.431Z,95.41
2022-12-19T09:10:14.301Z,95.26
2022-12-19T09:11:16.839Z,95.25
2022-12-19T09:12:15.808Z,95.61
2022-12-19T09:13:14.665Z,95.64
2022-12-19T09:14:16.369Z,95.54
2022-12-19T09:15:18.432Z,95.41
2022-12-19T09:16:23.605Z,95.22
2022-12-19T09:17:21.107Z,95.13
2022-12-19T09:18:21.379Z,95.11
2022-12-19T09:19:21.687Z,95.04
2022-12-19T09:20:23.667Z,94.95
2022-12-19T09:21:24.169Z,94.88
2022-12-19T09:22:27.669Z,94.78
2022-12-19T09:23:28.391Z,94.72
2022-12-19T09:24:27.487Z,94.56
2022-12-19T09:25:27.556Z,94.56
2022-12-19T09:26:27.979Z,94.43
2022-12-19T09:27:30.449Z,94.46
2022-12-19T09:28:30.663Z,94.46
2022-12-19T09:29:35.323Z,94.47
2022-12-19T09:30:33.169Z,94.44
2022-12-19T09:31:33.767Z,94.39
2022-12-19T09:32:34.068Z,94.31
2022-12-19T09:33:42.948Z,94.4
2022-12-19T09:34:37.547Z,94.34
2022-12-19T09:35:36.246Z,94.36
2022-12-19T09:36:36.439Z,94.3
2022-12-19T09:37:36.828Z,94.25
2022-12-19T09:38:37.967Z,94.44
2022-12-19T09:39:37.609Z,94.32
2022-12-19T09:47:03.349Z,94.08
2022-12-19T09:48:02.603Z,94.07
2022-12-19T09:49:02.546Z,94.13
2022-12-19T09:50:02.601Z,93.98
2022-12-19T09:51:12.405Z,93.81
2022-12-19T09:56:21.634Z,93.73
2022-12-19T10:00:41.911Z,93.56
2022-12-19T10:01:43.474Z,93.45
2022-12-19T10:07:13.959Z,92.93
2022-12-19T10:08:07.820Z,92.89
2022-12-19T10:09:49.016Z,92.65
2022-12-19T10:12:31.479Z,92.64
2022-12-19T10:19:20.648Z,92.92
2022-12-19T10:34:53.855Z,92.45
2022-12-19T10:44:14.312Z,92.93
2022-12-19T10:47:21.048Z,92.88
2022-12-19T10:48:30.783Z,92.99
2022-12-19T10:49:26.639Z,93.03
2022-12-19T10:50:27.939Z,93.12
2022-12-19T10:51:29.786Z,93.22
2022-12-19T10:53:32.039Z,92.87
2022-12-19T10:56:38.267Z,93.26
2022-12-19T10:57:38.268Z,93.44
2022-12-19T11:01:43.462Z,93.23
2022-12-19T11:02:50.922Z,93.13
2022-12-19T11:04:48.051Z,93.02
2022-12-19T11:10:38.175Z,93.04
2022-12-19T11:15:53.901Z,93.08
2022-12-19T11:19:28.614Z,93.22
2022-12-19T11:23:00.680Z,93.3
2022-12-19T11:24:16.294Z,93.37
2022-12-19T11:26:20.782Z,93.47
2022-12-19T11:29:40.717Z,93.86
2022-12-19T11:29:41.965Z,93.46
2022-12-19T11:29:42.411Z,93.42
2022-12-19T11:30:36.288Z,93.93
2022-12-19T11:30:36.953Z,93.76
2022-12-19T11:30:43.368Z,93.83
2022-12-19T11:30:43.936Z,93.82
2022-12-19T11:30:46.253Z,93.88
2022-12-19T11:32:39.026Z,94.37
2022-12-19T11:40:46.585Z,95.07
2022-12-19T11:50:02.923Z,95.88
2022-12-19T11:51:08.552Z,96
2022-12-19T11:56:17.053Z,96.27
2022-12-19T11:57:14.437Z,96.2
2022-12-19T11:58:15.090Z,96.07
2022-12-19T12:00:22.354Z,96.3
2022-12-19T12:06:47.701Z,96.63
2022-12-19T12:08:55.228Z,96.65
2022-12-19T12:44:08.594Z,94.34
2022-12-19T12:46:09.646Z,94.49
2022-12-19T12:50:20.420Z,94.41
2022-12-19T12:51:18.491Z,94.43
2022-12-19T12:52:29.846Z,94.37
2022-12-19T12:53:26.591Z,94.36
2022-12-19T12:54:31.000Z,94.6
2022-12-19T12:55:37.479Z,94.67
2022-12-19T12:56:31.310Z,94.54
2022-12-19T12:57:36.839Z,94.49
2022-12-19T12:59:35.924Z,94.45
2022-12-19T13:00:37.271Z,94.52
2022-12-19T13:01:39.563Z,94.41
2022-12-19T13:02:37.522Z,94.34
2022-12-19T13:03:40.460Z,94.17
2022-12-19T13:08:48.389Z,93.91
2022-12-19T13:09:52.902Z,93.93
2022-12-19T13:12:01.727Z,93.98
2022-12-19T13:13:56.829Z,93.87
2022-12-19T13:15:58.071Z,93.76
2022-12-19T13:16:58.430Z,93.91
2022-12-19T13:21:09.573Z,93.43
2022-12-19T13:24:16.232Z,93.16
2022-12-19T13:31:19.831Z,93.58
2022-12-19T13:31:35.979Z,93.69
2022-12-19T13:34:43.544Z,93.5
2022-12-19T13:39:46.990Z,93.59
2022-12-19T13:39:57.246Z,93.3
2022-12-19T13:41:03.052Z,93.53
2022-12-19T13:44:06.337Z,92.72
2022-12-19T13:47:21.967Z,91.74
2022-12-19T13:48:23.871Z,91.29
2022-12-19T13:50:34.529Z,91.07
2022-12-19T13:51:26.959Z,91.02
2022-12-19T13:52:27.173Z,90.97
2022-12-19T13:53:29.648Z,90.75
2022-12-19T13:54:37.622Z,90.63
2022-12-19T13:55:30.777Z,90.74
2022-12-19T13:56:31.088Z,90.82
2022-12-19T13:57:32.178Z,90.84
2022-12-19T13:58:37.047Z,90.9
2022-12-19T13:59:40.055Z,90.92
2022-12-19T14:00:42.681Z,91.09
2022-12-19T14:01:41.707Z,91.3
2022-12-19T14:02:51.484Z,91.42
2022-12-19T14:03:45.558Z,91.64
2022-12-19T14:04:45.690Z,91.62
2022-12-19T14:06:16.140Z,91.68
2022-12-19T14:06:47.867Z,91.84
2022-12-19T14:07:49.399Z,91.36
2022-12-19T14:09:58.588Z,91.33
2022-12-19T14:11:31.692Z,91.11
2022-12-19T14:11:40.202Z,91.1
2022-12-19T14:13:39.442Z,91.17
2022-12-19T14:13:59.285Z,91.11
2022-12-19T14:14:10.266Z,91.01
2022-12-19T14:16:15.418Z,91.12
2022-12-19T14:17:17.416Z,91.15
2022-12-19T14:18:43.249Z,91
2022-12-19T14:22:10.194Z,89.82
2022-12-19T14:22:26.360Z,89.91
2022-12-19T14:23:42.747Z,89.91
2022-12-19T14:24:26.363Z,89.73
2022-12-19T14:28:19.732Z,90.1
2022-12-19T14:30:38.646Z,90.05
2022-12-19T14:32:58.028Z,90.24
2022-12-19T14:33:44.123Z,90.3
2022-12-19T14:36:05.107Z,90.33
2022-12-19T14:36:08.841Z,90.52
2022-12-19T14:36:54.188Z,90.34
2022-12-19T14:39:25.721Z,90.47
2022-12-19T14:41:08.513Z,90.53
2022-12-19T14:52:11.487Z,90.26
2022-12-19T14:54:03.003Z,90.2
2022-12-19T14:54:29.541Z,90.19
2022-12-19T14:58:53.528Z,90.47
2022-12-19T14:58:55.187Z,90.34
2022-12-19T15:01:43.010Z,90.09
2022-12-19T15:02:43.318Z,89.98
2022-12-19T15:04:47.232Z,90.11
2022-12-19T15:07:10.391Z,90.04
2022-12-19T15:08:00.223Z,89.96
2022-12-19T15:10:57.592Z,89.87
2022-12-19T15:11:06.608Z,89.96
2022-12-19T15:11:16.986Z,90.22
2022-12-19T15:14:54.588Z,89.9
2022-12-19T15:17:25.480Z,89.76
2022-12-19T15:19:27.841Z,89.75
2022-12-19T15:20:28.253Z,89.8
2022-12-19T15:21:30.434Z,89.78
2022-12-19T15:22:28.986Z,89.87
2022-12-19T15:23:29.752Z,89.77
2022-12-19T15:24:29.932Z,89.87
2022-12-19T15:26:02.323Z,89.85
2022-12-19T15:27:33.633Z,89.97
2022-12-19T15:28:42.201Z,89.82
2022-12-19T15:29:34.875Z,89.94
2022-12-19T15:30:37.129Z,89.93
2022-12-19T15:31:43.494Z,90.12
2022-12-19T15:32:36.098Z,90.06
2022-12-19T15:33:38.443Z,89.97
2022-12-19T15:34:50.205Z,90.17
2022-12-19T15:35:43.202Z,90.11
2022-12-19T15:36:43.250Z,90.05
2022-12-19T15:37:44.880Z,90.02
2022-12-19T15:38:44.056Z,89.94
2022-12-19T15:39:45.514Z,90.01
2022-12-19T15:40:44.992Z,89.96
2022-12-19T15:41:48.979Z,89.99
2022-12-19T15:42:53.296Z,90.11
2022-12-19T15:44:03.706Z,89.92
2022-12-19T15:44:54.221Z,90.12
2022-12-19T15:45:58.783Z,90
2022-12-19T15:46:56.413Z,89.97
2022-12-19T15:47:56.804Z,89.97
2022-12-19T15:48:57.227Z,90.01
2022-12-19T15:49:57.522Z,89.96
2022-12-19T15:50:57.946Z,89.79
2022-12-19T15:51:58.122Z,89.96
2022-12-19T15:53:00.330Z,90.12
2022-12-19T15:54:15.649Z,90.07
2022-12-19T15:55:01.656Z,89.94
2022-12-19T15:56:02.595Z,89.98
2022-12-19T15:57:02.006Z,90.1
2022-12-19T15:58:06.280Z,90.12
2022-12-19T15:59:05.291Z,90.08
2022-12-19T16:00:07.971Z,90.22
2022-12-19T16:01:06.405Z,90.17
2022-12-19T16:03:27.724Z,90.2
2022-12-19T16:04:12.976Z,90.17
2022-12-19T16:05:11.614Z,90.1
2022-12-19T16:06:13.511Z,90
2022-12-19T16:08:19.135Z,89.64
2022-12-19T16:10:19.268Z,89.71
2022-12-19T16:11:22.864Z,89.89
2022-12-19T16:12:24.305Z,89.93
2022-12-19T16:13:25.343Z,89.9
2022-12-19T16:14:24.626Z,89.73
2022-12-19T16:16:29.078Z,89.69
2022-12-19T16:17:32.223Z,89.92
2022-12-19T16:18:29.559Z,89.85
2022-12-19T16:19:31.224Z,89.84
2022-12-19T16:20:36.653Z,89.87
2022-12-19T16:21:34.596Z,89.78
2022-12-19T16:22:34.472Z,89.62
2022-12-19T16:23:35.047Z,89.45
2022-12-19T16:24:35.350Z,89.66
2022-12-19T16:25:47.019Z,90.03
2022-12-19T16:26:40.168Z,90.19
2022-12-19T16:27:40.271Z,90.08
2022-12-19T16:28:40.383Z,89.96
2022-12-19T16:29:41.946Z,90.13
2022-12-19T16:30:41.106Z,89.92
2022-12-19T16:31:41.553Z,89.9
2022-12-19T16:32:41.743Z,89.82
2022-12-19T16:33:42.275Z,89.72
2022-12-19T16:34:42.371Z,89.81
2022-12-19T16:36:10.616Z,90.04
2022-12-19T16:36:45.557Z,90.15
2022-12-19T16:37:45.785Z,90.24
2022-12-19T16:38:46.180Z,90.04
2022-12-19T16:39:46.386Z,90.03
2022-12-19T16:40:48.219Z,90.2
2022-12-19T16:41:47.234Z,90.18
2022-12-19T16:42:48.767Z,90.14
2022-12-19T16:43:48.257Z,90.07
2022-12-19T16:44:48.399Z,90.22
2022-12-19T16:45:48.481Z,90.1
2022-12-19T16:46:51.375Z,90.2
2022-12-19T16:47:49.844Z,90.05
2022-12-19T16:48:50.342Z,89.99
2022-12-19T16:49:50.049Z,90.01
2022-12-19T16:50:50.874Z,89.79
2022-12-19T16:51:51.596Z,89.59
2022-12-19T16:52:54.775Z,89.84
2022-12-19T16:53:55.396Z,89.91
2022-12-19T16:54:52.840Z,89.81
2022-12-19T16:55:55.840Z,89.68
2022-12-19T16:56:54.166Z,89.93
2022-12-19T16:57:56.248Z,89.85
2022-12-19T16:58:56.474Z,89.83
2022-12-19T16:59:54.882Z,89.58
2022-12-19T17:00:56.061Z,89.42
2022-12-19T17:01:57.382Z,89.36
2022-12-19T17:02:59.574Z,89.43
2022-12-19T17:03:56.990Z,89.23
2022-12-19T17:04:57.416Z,89.26
2022-12-19T17:05:57.951Z,89.31
2022-12-19T17:06:58.231Z,89.45
2022-12-19T17:07:59.076Z,89.61
2022-12-19T17:08:58.969Z,89.6
2022-12-19T17:09:59.295Z,89.59
2022-12-19T17:10:59.850Z,89.76
2022-12-19T17:12:01.776Z,89.91
2022-12-19T17:13:02.483Z,90.11
2022-12-19T17:15:07.200Z,90.15
2022-12-19T17:16:05.314Z,90.08
2022-12-19T17:17:04.945Z,90.08
2022-12-19T17:20:18.922Z,90.13
2022-12-19T17:21:20.049Z,89.98
2022-12-19T17:22:16.569Z,89.89
2022-12-19T17:24:16.483Z,89.84
2022-12-19T17:26:19.285Z,89.57
2022-12-19T17:27:18.963Z,89.61
2022-12-19T17:28:19.376Z,89.42
2022-12-19T17:29:19.701Z,89.53
2022-12-19T17:30:20.638Z,89.54
2022-12-19T17:31:28.473Z,89.63
2022-12-19T17:32:24.195Z,89.63
2022-12-19T17:33:24.730Z,89.7
2022-12-19T17:34:28.076Z,89.7
2022-12-19T17:35:29.470Z,89.62
2022-12-19T17:36:36.564Z,89.52
2022-12-19T17:37:30.210Z,89.4
2022-12-19T17:38:30.421Z,89.07
2022-12-19T17:39:33.776Z,88.94
2022-12-19T17:40:33.687Z,88.85
2022-12-19T17:41:31.874Z,88.75
2022-12-19T17:42:37.012Z,88.67
2022-12-19T17:43:34.819Z,88.69
2022-12-19T17:44:35.356Z,88.97
2022-12-19T17:45:35.696Z,89
2022-12-19T17:46:36.924Z,89.08
2022-12-19T17:47:36.505Z,89.06
2022-12-19T17:48:36.815Z,88.7
2022-12-19T17:49:38.774Z,88.6
2022-12-19T17:50:41.442Z,88.5
2022-12-19T17:51:40.150Z,88.64
2022-12-19T17:52:40.316Z,88.55
2022-12-19T17:53:40.740Z,88.53
2022-12-19T17:54:41.262Z,88.76
2022-12-19T17:55:41.985Z,88.57
2022-12-19T17:56:41.886Z,88.64
2022-12-19T17:57:42.156Z,88.69
2022-12-19T17:58:42.718Z,88.52
2022-12-19T17:59:43.093Z,88.57
2022-12-19T18:00:44.740Z,88.49
2022-12-19T18:01:44.568Z,88.68